sensor_id;sensor_type;location;lat;lon;timestamp;temperature;humidity
38241;DHT22;24037;49.536;8.500;2023-07-13T00:01:31;20.00;1.00
38241;DHT22;24037;49.536;8.500;2023-07-13T00:03:57;19.90;1.00
38241;DHT22;24037;49.536;8.500;2023-07-13T00:06:23;19.90;1.00
38241;DHT22;24037;49.536;8.500;2023-07-13T00:08:50;19.70;1.00
38241;DHT22;24037;49.536;8.500;2023-07-13T00:11:17;19.50;1.00
38241;DHT22;24037;49.536;8.500;2023-07-13T00:13:43;19.40;3.70
38241;DHT22;24037;49.536;8.500;2023-07-13T00:16:11;19.30;8.60
38241;DHT22;24037;49.536;8.500;2023-07-13T00:18:37;19.30;28.80
38241;DHT22;24037;49.536;8.500;2023-07-13T00:21:04;19.20;29.60
38241;DHT22;24037;49.536;8.500;2023-07-13T00:23:38;19.00;38.30
38241;DHT22;24037;49.536;8.500;2023-07-13T00:26:07;19.00;44.10
38241;DHT22;24037;49.536;8.500;2023-07-13T00:28:34;18.90;59.80
38241;DHT22;24037;49.536;8.500;2023-07-13T00:31:01;18.90;70.60
38241;DHT22;24037;49.536;8.500;2023-07-13T00:33:28;18.80;83.20
38241;DHT22;24037;49.536;8.500;2023-07-13T00:35:55;18.70;81.80
38241;DHT22;24037;49.536;8.500;2023-07-13T00:38:22;18.70;89.00
38241;DHT22;24037;49.536;8.500;2023-07-13T00:40:49;18.70;82.70
38241;DHT22;24037;49.536;8.500;2023-07-13T00:43:17;18.70;86.40
38241;DHT22;24037;49.536;8.500;2023-07-13T00:48:12;18.70;86.50
38241;DHT22;24037;49.536;8.500;2023-07-13T00:50:40;18.60;84.10
38241;DHT22;24037;49.536;8.500;2023-07-13T00:53:07;18.50;97.90
38241;DHT22;24037;49.536;8.500;2023-07-13T00:55:35;18.40;99.90
38241;DHT22;24037;49.536;8.500;2023-07-13T00:58:02;18.40;99.90
38241;DHT22;24037;49.536;8.500;2023-07-13T01:00:29;18.30;99.90
38241;DHT22;24037;49.536;8.500;2023-07-13T01:02:56;18.20;99.90
38241;DHT22;24037;49.536;8.500;2023-07-13T01:05:26;18.10;99.90
38241;DHT22;24037;49.536;8.500;2023-07-13T01:07:52;17.90;99.90
38241;DHT22;24037;49.536;8.500;2023-07-13T01:10:22;17.70;99.90
38241;DHT22;24037;49.536;8.500;2023-07-13T01:12:48;17.70;99.90
38241;DHT22;24037;49.536;8.500;2023-07-13T01:15:44;17.60;99.90
38241;DHT22;24037;49.536;8.500;2023-07-13T01:18:15;17.50;99.90
38241;DHT22;24037;49.536;8.500;2023-07-13T01:20:52;17.40;99.90
38241;DHT22;24037;49.536;8.500;2023-07-13T01:23:19;17.40;99.90
38241;DHT22;24037;49.536;8.500;2023-07-13T01:25:45;17.30;99.90
38241;DHT22;24037;49.536;8.500;2023-07-13T01:28:11;17.10;99.90
38241;DHT22;24037;49.536;8.500;2023-07-13T01:30:39;17.10;99.90
38241;DHT22;24037;49.536;8.500;2023-07-13T01:33:09;17.10;99.90
38241;DHT22;24037;49.536;8.500;2023-07-13T01:35:36;17.10;99.90
38241;DHT22;24037;49.536;8.500;2023-07-13T01:38:02;17.00;99.90
38241;DHT22;24037;49.536;8.500;2023-07-13T01:40:29;17.10;99.90
38241;DHT22;24037;49.536;8.500;2023-07-13T01:42:58;16.90;99.90
38241;DHT22;24037;49.536;8.500;2023-07-13T01:45:24;16.60;99.90
38241;DHT22;24037;49.536;8.500;2023-07-13T01:47:50;16.50;99.90
38241;DHT22;24037;49.536;8.500;2023-07-13T01:50:17;16.40;99.90
38241;DHT22;24037;49.536;8.500;2023-07-13T01:52:43;16.40;99.90
38241;DHT22;24037;49.536;8.500;2023-07-13T01:55:09;16.30;99.90
38241;DHT22;24037;49.536;8.500;2023-07-13T01:57:35;16.30;1.00
38241;DHT22;24037;49.536;8.500;2023-07-13T02:00:06;16.30;1.00
38241;DHT22;24037;49.536;8.500;2023-07-13T02:02:41;16.30;1.00
38241;DHT22;24037;49.536;8.500;2023-07-13T02:05:11;16.30;99.90
38241;DHT22;24037;49.536;8.500;2023-07-13T02:07:38;16.10;1.00
38241;DHT22;24037;49.536;8.500;2023-07-13T02:10:06;16.00;1.00
38241;DHT22;24037;49.536;8.500;2023-07-13T02:12:33;16.00;1.00
38241;DHT22;24037;49.536;8.500;2023-07-13T02:15:00;16.00;1.00
38241;DHT22;24037;49.536;8.500;2023-07-13T02:17:26;15.80;1.00
38241;DHT22;24037;49.536;8.500;2023-07-13T02:19:53;15.80;1.00
38241;DHT22;24037;49.536;8.500;2023-07-13T02:22:21;15.80;1.00
38241;DHT22;24037;49.536;8.500;2023-07-13T02:24:47;15.70;1.00
38241;DHT22;24037;49.536;8.500;2023-07-13T02:27:13;15.70;1.00
38241;DHT22;24037;49.536;8.500;2023-07-13T02:29:40;15.70;1.00
38241;DHT22;24037;49.536;8.500;2023-07-13T02:32:06;15.80;1.00
38241;DHT22;24037;49.536;8.500;2023-07-13T02:34:34;15.80;99.90
38241;DHT22;24037;49.536;8.500;2023-07-13T02:37:00;15.90;99.90
38241;DHT22;24037;49.536;8.500;2023-07-13T02:39:26;15.90;99.90
38241;DHT22;24037;49.536;8.500;2023-07-13T02:41:52;16.00;99.90
38241;DHT22;24037;49.536;8.500;2023-07-13T02:44:18;15.90;99.90
38241;DHT22;24037;49.536;8.500;2023-07-13T02:46:44;15.90;99.90
38241;DHT22;24037;49.536;8.500;2023-07-13T02:49:10;15.90;99.90
38241;DHT22;24037;49.536;8.500;2023-07-13T02:51:37;15.90;99.90
38241;DHT22;24037;49.536;8.500;2023-07-13T02:54:04;15.90;99.90
38241;DHT22;24037;49.536;8.500;2023-07-13T02:56:32;15.90;99.90
38241;DHT22;24037;49.536;8.500;2023-07-13T02:58:59;15.90;1.00
38241;DHT22;24037;49.536;8.500;2023-07-13T03:01:26;15.70;1.00
38241;DHT22;24037;49.536;8.500;2023-07-13T03:03:53;15.60;1.00
38241;DHT22;24037;49.536;8.500;2023-07-13T03:06:19;15.50;1.00
38241;DHT22;24037;49.536;8.500;2023-07-13T03:08:50;15.20;1.00
38241;DHT22;24037;49.536;8.500;2023-07-13T03:11:18;15.10;1.00
38241;DHT22;24037;49.536;8.500;2023-07-13T03:13:49;15.10;1.00
38241;DHT22;24037;49.536;8.500;2023-07-13T03:16:16;15.00;1.00
38241;DHT22;24037;49.536;8.500;2023-07-13T03:18:46;14.90;1.00
38241;DHT22;24037;49.536;8.500;2023-07-13T03:21:12;14.90;1.00
38241;DHT22;24037;49.536;8.500;2023-07-13T03:23:40;14.90;1.00
38241;DHT22;24037;49.536;8.500;2023-07-13T03:26:12;14.80;1.00
38241;DHT22;24037;49.536;8.500;2023-07-13T03:28:40;14.70;1.00
38241;DHT22;24037;49.536;8.500;2023-07-13T03:31:13;14.60;6.60
38241;DHT22;24037;49.536;8.500;2023-07-13T03:33:41;14.60;15.20
38241;DHT22;24037;49.536;8.500;2023-07-13T03:36:11;14.60;13.00
38241;DHT22;24037;49.536;8.500;2023-07-13T03:38:38;14.60;17.30
38241;DHT22;24037;49.536;8.500;2023-07-13T03:41:04;14.70;15.70
38241;DHT22;24037;49.536;8.500;2023-07-13T03:43:31;14.70;12.00
38241;DHT22;24037;49.536;8.500;2023-07-13T03:45:57;14.60;19.30
38241;DHT22;24037;49.536;8.500;2023-07-13T03:48:24;14.60;29.80
38241;DHT22;24037;49.536;8.500;2023-07-13T03:50:50;14.70;42.50
38241;DHT22;24037;49.536;8.500;2023-07-13T03:53:16;14.80;26.50
38241;DHT22;24037;49.536;8.500;2023-07-13T03:55:42;14.60;5.90
38241;DHT22;24037;49.536;8.500;2023-07-13T03:58:31;14.40;10.40
38241;DHT22;24037;49.536;8.500;2023-07-13T04:01:03;14.30;23.90
38241;DHT22;24037;49.536;8.500;2023-07-13T04:03:31;14.20;45.40
38241;DHT22;24037;49.536;8.500;2023-07-13T04:06:03;14.20;55.50
38241;DHT22;24037;49.536;8.500;2023-07-13T04:08:32;14.10;68.60
38241;DHT22;24037;49.536;8.500;2023-07-13T04:11:00;14.00;83.20
38241;DHT22;24037;49.536;8.500;2023-07-13T04:13:27;14.00;81.60
38241;DHT22;24037;49.536;8.500;2023-07-13T04:15:54;14.20;97.40
38241;DHT22;24037;49.536;8.500;2023-07-13T04:18:21;14.30;85.90
38241;DHT22;24037;49.536;8.500;2023-07-13T04:20:48;14.50;62.70
38241;DHT22;24037;49.536;8.500;2023-07-13T04:23:18;14.80;29.60
38241;DHT22;24037;49.536;8.500;2023-07-13T04:25:46;14.90;20.90
38241;DHT22;24037;49.536;8.500;2023-07-13T04:28:12;15.20;1.00
38241;DHT22;24037;49.536;8.500;2023-07-13T04:30:38;15.60;1.00
38241;DHT22;24037;49.536;8.500;2023-07-13T04:33:04;16.60;1.00
38241;DHT22;24037;49.536;8.500;2023-07-13T04:35:31;17.20;99.90
38241;DHT22;24037;49.536;8.500;2023-07-13T04:37:57;16.90;99.90
38241;DHT22;24037;49.536;8.500;2023-07-13T04:40:23;17.00;99.90
38241;DHT22;24037;49.536;8.500;2023-07-13T04:42:49;17.40;99.90
38241;DHT22;24037;49.536;8.500;2023-07-13T04:45:16;17.80;99.90
38241;DHT22;24037;49.536;8.500;2023-07-13T04:47:43;18.00;99.90
38241;DHT22;24037;49.536;8.500;2023-07-13T04:50:12;17.70;99.90
38241;DHT22;24037;49.536;8.500;2023-07-13T04:52:38;17.10;99.90
38241;DHT22;24037;49.536;8.500;2023-07-13T04:55:04;16.50;1.00
38241;DHT22;24037;49.536;8.500;2023-07-13T04:57:31;16.20;1.00
38241;DHT22;24037;49.536;8.500;2023-07-13T04:59:57;15.80;1.00
38241;DHT22;24037;49.536;8.500;2023-07-13T05:02:27;15.40;1.00
38241;DHT22;24037;49.536;8.500;2023-07-13T05:04:54;15.30;1.00
38241;DHT22;24037;49.536;8.500;2023-07-13T05:07:21;15.20;1.00
38241;DHT22;24037;49.536;8.500;2023-07-13T05:09:48;15.30;1.00
38241;DHT22;24037;49.536;8.500;2023-07-13T05:12:14;15.80;1.00
38241;DHT22;24037;49.536;8.500;2023-07-13T05:14:40;16.60;1.00
38241;DHT22;24037;49.536;8.500;2023-07-13T05:17:06;17.20;1.00
38241;DHT22;24037;49.536;8.500;2023-07-13T05:19:32;17.50;99.90
38241;DHT22;24037;49.536;8.500;2023-07-13T05:21:58;17.70;99.90
38241;DHT22;24037;49.536;8.500;2023-07-13T05:24:24;17.90;99.90
38241;DHT22;24037;49.536;8.500;2023-07-13T05:26:50;17.90;99.90
38241;DHT22;24037;49.536;8.500;2023-07-13T05:29:17;17.90;99.90
38241;DHT22;24037;49.536;8.500;2023-07-13T05:31:43;17.90;99.90
38241;DHT22;24037;49.536;8.500;2023-07-13T05:34:09;17.70;99.90
38241;DHT22;24037;49.536;8.500;2023-07-13T05:36:35;17.90;99.90
38241;DHT22;24037;49.536;8.500;2023-07-13T05:39:05;18.30;99.90
38241;DHT22;24037;49.536;8.500;2023-07-13T05:41:31;18.50;99.90
38241;DHT22;24037;49.536;8.500;2023-07-13T05:43:57;19.00;99.90
38241;DHT22;24037;49.536;8.500;2023-07-13T05:46:24;19.20;99.90
38241;DHT22;24037;49.536;8.500;2023-07-13T05:48:50;19.30;99.90
38241;DHT22;24037;49.536;8.500;2023-07-13T05:51:16;19.40;99.90
38241;DHT22;24037;49.536;8.500;2023-07-13T05:53:42;20.30;99.90
38241;DHT22;24037;49.536;8.500;2023-07-13T05:56:08;21.00;35.60
38241;DHT22;24037;49.536;8.500;2023-07-13T05:58:35;20.40;48.30
38241;DHT22;24037;49.536;8.500;2023-07-13T06:01:04;20.30;13.40
38241;DHT22;24037;49.536;8.500;2023-07-13T06:03:31;20.00;45.20
38241;DHT22;24037;49.536;8.500;2023-07-13T06:05:57;19.70;59.40
38241;DHT22;24037;49.536;8.500;2023-07-13T06:08:23;19.90;33.80
38241;DHT22;24037;49.536;8.500;2023-07-13T06:10:49;20.40;15.40
38241;DHT22;24037;49.536;8.500;2023-07-13T06:13:15;20.80;21.50
38241;DHT22;24037;49.536;8.500;2023-07-13T06:15:41;21.20;1.00
38241;DHT22;24037;49.536;8.500;2023-07-13T06:18:08;21.60;1.00
38241;DHT22;24037;49.536;8.500;2023-07-13T06:20:34;21.60;1.00
38241;DHT22;24037;49.536;8.500;2023-07-13T06:23:01;21.10;1.00
38241;DHT22;24037;49.536;8.500;2023-07-13T06:25:27;21.10;1.00
38241;DHT22;24037;49.536;8.500;2023-07-13T06:27:54;21.50;1.00
38241;DHT22;24037;49.536;8.500;2023-07-13T06:30:20;21.40;1.00
38241;DHT22;24037;49.536;8.500;2023-07-13T06:32:46;20.70;1.00
38241;DHT22;24037;49.536;8.500;2023-07-13T06:35:12;21.10;12.80
38241;DHT22;24037;49.536;8.500;2023-07-13T06:37:39;21.10;1.00
38241;DHT22;24037;49.536;8.500;2023-07-13T06:40:06;20.80;1.00
38241;DHT22;24037;49.536;8.500;2023-07-13T06:42:32;21.20;1.00
38241;DHT22;24037;49.536;8.500;2023-07-13T06:44:58;21.90;1.00
38241;DHT22;24037;49.536;8.500;2023-07-13T06:47:24;22.10;1.00
38241;DHT22;24037;49.536;8.500;2023-07-13T06:49:50;22.00;1.00
38241;DHT22;24037;49.536;8.500;2023-07-13T06:52:16;22.10;99.90
38241;DHT22;24037;49.536;8.500;2023-07-13T06:54:43;22.20;99.90
38241;DHT22;24037;49.536;8.500;2023-07-13T06:57:09;22.10;99.90
38241;DHT22;24037;49.536;8.500;2023-07-13T06:59:35;22.80;99.90
38241;DHT22;24037;49.536;8.500;2023-07-13T07:02:01;23.20;99.90
38241;DHT22;24037;49.536;8.500;2023-07-13T07:04:28;23.10;99.90
38241;DHT22;24037;49.536;8.500;2023-07-13T07:06:54;22.70;99.90
38241;DHT22;24037;49.536;8.500;2023-07-13T07:09:20;22.60;99.90
38241;DHT22;24037;49.536;8.500;2023-07-13T07:11:46;22.50;99.90
38241;DHT22;24037;49.536;8.500;2023-07-13T07:14:12;22.30;99.90
38241;DHT22;24037;49.536;8.500;2023-07-13T07:16:38;22.30;99.90
38241;DHT22;24037;49.536;8.500;2023-07-13T07:19:05;22.30;99.90
38241;DHT22;24037;49.536;8.500;2023-07-13T07:21:31;23.20;99.90
38241;DHT22;24037;49.536;8.500;2023-07-13T07:23:57;22.90;99.90
38241;DHT22;24037;49.536;8.500;2023-07-13T07:26:25;22.60;99.90
38241;DHT22;24037;49.536;8.500;2023-07-13T07:28:52;22.60;99.90
38241;DHT22;24037;49.536;8.500;2023-07-13T07:31:18;22.40;99.90
38241;DHT22;24037;49.536;8.500;2023-07-13T07:33:44;22.30;99.90
38241;DHT22;24037;49.536;8.500;2023-07-13T07:36:10;22.40;99.90
38241;DHT22;24037;49.536;8.500;2023-07-13T07:38:37;22.70;99.90
38241;DHT22;24037;49.536;8.500;2023-07-13T07:41:04;22.50;99.90
38241;DHT22;24037;49.536;8.500;2023-07-13T07:43:30;23.20;99.90
38241;DHT22;24037;49.536;8.500;2023-07-13T07:45:57;23.00;99.90
38241;DHT22;24037;49.536;8.500;2023-07-13T07:48:24;23.00;99.90
38241;DHT22;24037;49.536;8.500;2023-07-13T07:50:50;22.70;99.90
38241;DHT22;24037;49.536;8.500;2023-07-13T07:53:16;22.70;99.90
38241;DHT22;24037;49.536;8.500;2023-07-13T07:55:42;23.10;99.90
38241;DHT22;24037;49.536;8.500;2023-07-13T07:58:10;24.10;99.90
38241;DHT22;24037;49.536;8.500;2023-07-13T08:00:36;24.50;99.90
38241;DHT22;24037;49.536;8.500;2023-07-13T08:03:03;25.30;99.90
38241;DHT22;24037;49.536;8.500;2023-07-13T08:05:29;24.80;99.90
38241;DHT22;24037;49.536;8.500;2023-07-13T08:07:55;24.10;99.90
38241;DHT22;24037;49.536;8.500;2023-07-13T08:10:21;24.50;99.90
38241;DHT22;24037;49.536;8.500;2023-07-13T08:12:47;23.90;99.90
38241;DHT22;24037;49.536;8.500;2023-07-13T08:15:15;24.30;99.90
38241;DHT22;24037;49.536;8.500;2023-07-13T08:17:42;24.50;99.90
38241;DHT22;24037;49.536;8.500;2023-07-13T08:20:09;25.10;99.90
38241;DHT22;24037;49.536;8.500;2023-07-13T08:22:35;25.10;99.90
38241;DHT22;24037;49.536;8.500;2023-07-13T08:25:02;24.70;99.90
38241;DHT22;24037;49.536;8.500;2023-07-13T08:27:29;24.50;99.90
38241;DHT22;24037;49.536;8.500;2023-07-13T08:29:55;24.90;99.90
38241;DHT22;24037;49.536;8.500;2023-07-13T08:32:23;25.40;99.90
38241;DHT22;24037;49.536;8.500;2023-07-13T08:34:49;24.70;99.90
38241;DHT22;24037;49.536;8.500;2023-07-13T08:37:15;24.60;99.90
38241;DHT22;24037;49.536;8.500;2023-07-13T08:39:43;24.60;99.90
38241;DHT22;24037;49.536;8.500;2023-07-13T08:47:35;25.50;99.90
38241;DHT22;24037;49.536;8.500;2023-07-13T08:50:04;25.60;99.90
38241;DHT22;24037;49.536;8.500;2023-07-13T08:52:34;24.70;99.90
38241;DHT22;24037;49.536;8.500;2023-07-13T08:55:11;23.60;99.90
38241;DHT22;24037;49.536;8.500;2023-07-13T08:57:41;23.60;99.90
38241;DHT22;24037;49.536;8.500;2023-07-13T09:00:11;23.60;99.90
38241;DHT22;24037;49.536;8.500;2023-07-13T09:02:46;23.60;99.90
38241;DHT22;24037;49.536;8.500;2023-07-13T09:05:34;24.20;99.90
38241;DHT22;24037;49.536;8.500;2023-07-13T09:08:42;24.70;99.90
38241;DHT22;24037;49.536;8.500;2023-07-13T09:16:44;25.60;99.90
38241;DHT22;24037;49.536;8.500;2023-07-13T09:19:20;26.60;99.90
38241;DHT22;24037;49.536;8.500;2023-07-13T09:21:48;26.80;99.90
38241;DHT22;24037;49.536;8.500;2023-07-13T09:24:31;26.10;99.90
38241;DHT22;24037;49.536;8.500;2023-07-13T09:27:02;25.80;99.90
38241;DHT22;24037;49.536;8.500;2023-07-13T09:29:33;24.90;99.90
38241;DHT22;24037;49.536;8.500;2023-07-13T09:32:06;25.30;99.90
38241;DHT22;24037;49.536;8.500;2023-07-13T09:34:33;26.00;99.90
38241;DHT22;24037;49.536;8.500;2023-07-13T09:37:00;26.40;99.90
38241;DHT22;24037;49.536;8.500;2023-07-13T09:39:55;26.10;99.90
38241;DHT22;24037;49.536;8.500;2023-07-13T09:42:22;25.50;99.90
38241;DHT22;24037;49.536;8.500;2023-07-13T09:44:59;25.50;99.90
38241;DHT22;24037;49.536;8.500;2023-07-13T09:47:28;25.40;99.90
38241;DHT22;24037;49.536;8.500;2023-07-13T09:50:00;25.20;99.90
38241;DHT22;24037;49.536;8.500;2023-07-13T09:52:28;24.90;99.90
38241;DHT22;24037;49.536;8.500;2023-07-13T09:55:33;24.40;99.90
38241;DHT22;24037;49.536;8.500;2023-07-13T09:58:12;24.20;99.90
38241;DHT22;24037;49.536;8.500;2023-07-13T10:00:39;24.00;99.90
38241;DHT22;24037;49.536;8.500;2023-07-13T10:03:18;24.50;99.90
38241;DHT22;24037;49.536;8.500;2023-07-13T10:05:47;24.70;99.90
38241;DHT22;24037;49.536;8.500;2023-07-13T10:08:28;24.60;99.90
38241;DHT22;24037;49.536;8.500;2023-07-13T10:11:26;23.90;99.90
38241;DHT22;24037;49.536;8.500;2023-07-13T10:16:28;24.00;99.90
38241;DHT22;24037;49.536;8.500;2023-07-13T10:19:14;23.90;99.90
38241;DHT22;24037;49.536;8.500;2023-07-13T10:24:21;24.10;99.90
38241;DHT22;24037;49.536;8.500;2023-07-13T10:27:13;24.10;99.90
38241;DHT22;24037;49.536;8.500;2023-07-13T10:29:41;24.20;99.90
38241;DHT22;24037;49.536;8.500;2023-07-13T10:32:12;24.50;99.90
38241;DHT22;24037;49.536;8.500;2023-07-13T10:34:43;24.40;99.90
38241;DHT22;24037;49.536;8.500;2023-07-13T10:37:18;24.60;99.90
38241;DHT22;24037;49.536;8.500;2023-07-13T10:39:47;24.90;99.90
38241;DHT22;24037;49.536;8.500;2023-07-13T10:42:30;24.70;99.90
38241;DHT22;24037;49.536;8.500;2023-07-13T10:44:58;24.70;99.90
38241;DHT22;24037;49.536;8.500;2023-07-13T10:47:24;25.20;99.90
38241;DHT22;24037;49.536;8.500;2023-07-13T10:49:54;25.50;99.90
38241;DHT22;24037;49.536;8.500;2023-07-13T10:55:32;25.50;99.90
38241;DHT22;24037;49.536;8.500;2023-07-13T10:58:11;25.40;99.90
38241;DHT22;24037;49.536;8.500;2023-07-13T11:00:46;25.20;99.90
38241;DHT22;24037;49.536;8.500;2023-07-13T11:03:16;24.80;99.90
38241;DHT22;24037;49.536;8.500;2023-07-13T11:05:44;24.60;99.90
38241;DHT22;24037;49.536;8.500;2023-07-13T11:08:32;24.60;99.90
38241;DHT22;24037;49.536;8.500;2023-07-13T11:10:59;24.50;99.90
38241;DHT22;24037;49.536;8.500;2023-07-13T11:21:29;24.70;99.90
38241;DHT22;24037;49.536;8.500;2023-07-13T11:31:57;25.70;99.90
38241;DHT22;24037;49.536;8.500;2023-07-13T11:34:38;26.00;99.90
38241;DHT22;24037;49.536;8.500;2023-07-13T11:37:11;25.80;99.90
38241;DHT22;24037;49.536;8.500;2023-07-13T11:39:42;25.50;99.90
38241;DHT22;24037;49.536;8.500;2023-07-13T11:42:13;25.50;99.90
38241;DHT22;24037;49.536;8.500;2023-07-13T11:44:47;25.70;99.90
38241;DHT22;24037;49.536;8.500;2023-07-13T11:47:21;25.70;99.90
38241;DHT22;24037;49.536;8.500;2023-07-13T11:49:55;25.60;99.90
38241;DHT22;24037;49.536;8.500;2023-07-13T11:52:37;25.10;99.90
38241;DHT22;24037;49.536;8.500;2023-07-13T11:55:16;25.10;99.90
38241;DHT22;24037;49.536;8.500;2023-07-13T11:57:51;25.50;99.90
38241;DHT22;24037;49.536;8.500;2023-07-13T12:00:26;25.60;99.90
38241;DHT22;24037;49.536;8.500;2023-07-13T12:02:58;25.50;99.90
38241;DHT22;24037;49.536;8.500;2023-07-13T12:05:25;25.30;99.90
38241;DHT22;24037;49.536;8.500;2023-07-13T12:07:51;25.00;99.90
38241;DHT22;24037;49.536;8.500;2023-07-13T12:10:19;24.90;99.90
38241;DHT22;24037;49.536;8.500;2023-07-13T12:12:57;24.90;99.90
38241;DHT22;24037;49.536;8.500;2023-07-13T12:18:01;25.00;99.90
38241;DHT22;24037;49.536;8.500;2023-07-13T12:20:37;25.10;99.90
38241;DHT22;24037;49.536;8.500;2023-07-13T12:23:25;25.20;99.90
38241;DHT22;24037;49.536;8.500;2023-07-13T12:25:54;25.60;99.90
38241;DHT22;24037;49.536;8.500;2023-07-13T12:28:28;25.70;99.90
38241;DHT22;24037;49.536;8.500;2023-07-13T12:31:01;25.50;99.90
38241;DHT22;24037;49.536;8.500;2023-07-13T12:33:32;25.20;99.90
38241;DHT22;24037;49.536;8.500;2023-07-13T12:36:04;25.40;99.90
38241;DHT22;24037;49.536;8.500;2023-07-13T12:38:32;25.80;99.90
38241;DHT22;24037;49.536;8.500;2023-07-13T12:40:58;25.70;99.90
38241;DHT22;24037;49.536;8.500;2023-07-13T12:43:37;25.40;99.90
38241;DHT22;24037;49.536;8.500;2023-07-13T12:46:18;25.70;99.90
38241;DHT22;24037;49.536;8.500;2023-07-13T12:48:51;26.40;99.90
38241;DHT22;24037;49.536;8.500;2023-07-13T12:51:22;27.30;99.90
38241;DHT22;24037;49.536;8.500;2023-07-13T12:53:51;27.60;99.90
38241;DHT22;24037;49.536;8.500;2023-07-13T12:56:26;27.20;99.90
38241;DHT22;24037;49.536;8.500;2023-07-13T12:58:58;26.70;99.90
38241;DHT22;24037;49.536;8.500;2023-07-13T13:01:29;26.50;99.90
38241;DHT22;24037;49.536;8.500;2023-07-13T13:04:01;26.40;99.90
38241;DHT22;24037;49.536;8.500;2023-07-13T13:06:32;26.10;99.90
38241;DHT22;24037;49.536;8.500;2023-07-13T13:08:59;25.80;99.90
38241;DHT22;24037;49.536;8.500;2023-07-13T13:11:27;25.50;99.90
38241;DHT22;24037;49.536;8.500;2023-07-13T13:13:53;25.30;99.90
38241;DHT22;24037;49.536;8.500;2023-07-13T13:16:30;25.40;99.90
38241;DHT22;24037;49.536;8.500;2023-07-13T13:19:01;25.50;99.90
38241;DHT22;24037;49.536;8.500;2023-07-13T13:21:29;25.30;99.90
38241;DHT22;24037;49.536;8.500;2023-07-13T13:23:55;25.50;99.90
38241;DHT22;24037;49.536;8.500;2023-07-13T13:26:22;25.50;99.90
38241;DHT22;24037;49.536;8.500;2023-07-13T13:28:48;25.80;99.90
38241;DHT22;24037;49.536;8.500;2023-07-13T13:31:15;25.90;99.90
38241;DHT22;24037;49.536;8.500;2023-07-13T13:33:43;25.30;99.90
38241;DHT22;24037;49.536;8.500;2023-07-13T13:36:17;25.70;99.90
38241;DHT22;24037;49.536;8.500;2023-07-13T13:38:44;25.90;99.90
38241;DHT22;24037;49.536;8.500;2023-07-13T13:41:12;25.90;99.90
38241;DHT22;24037;49.536;8.500;2023-07-13T13:43:40;25.70;99.90
38241;DHT22;24037;49.536;8.500;2023-07-13T13:46:19;25.50;99.90
38241;DHT22;24037;49.536;8.500;2023-07-13T13:48:45;25.60;99.90
38241;DHT22;24037;49.536;8.500;2023-07-13T13:51:17;25.50;99.90
38241;DHT22;24037;49.536;8.500;2023-07-13T13:53:44;25.20;99.90
38241;DHT22;24037;49.536;8.500;2023-07-13T13:56:12;25.30;99.90
38241;DHT22;24037;49.536;8.500;2023-07-13T13:58:38;25.30;99.90
38241;DHT22;24037;49.536;8.500;2023-07-13T14:01:10;25.30;99.90
38241;DHT22;24037;49.536;8.500;2023-07-13T14:03:38;25.30;99.90
38241;DHT22;24037;49.536;8.500;2023-07-13T14:06:04;25.50;99.90
38241;DHT22;24037;49.536;8.500;2023-07-13T14:08:30;25.30;99.90
38241;DHT22;24037;49.536;8.500;2023-07-13T14:10:57;25.40;99.90
38241;DHT22;24037;49.536;8.500;2023-07-13T14:13:45;25.50;99.90
38241;DHT22;24037;49.536;8.500;2023-07-13T14:16:16;25.50;99.90
38241;DHT22;24037;49.536;8.500;2023-07-13T14:18:47;25.50;99.90
38241;DHT22;24037;49.536;8.500;2023-07-13T14:23:41;25.80;99.90
38241;DHT22;24037;49.536;8.500;2023-07-13T14:26:12;25.80;99.90
38241;DHT22;24037;49.536;8.500;2023-07-13T14:28:44;25.40;99.90
38241;DHT22;24037;49.536;8.500;2023-07-13T14:31:12;25.50;99.90
38241;DHT22;24037;49.536;8.500;2023-07-13T14:33:39;25.40;99.90
38241;DHT22;24037;49.536;8.500;2023-07-13T14:36:21;25.60;99.90
38241;DHT22;24037;49.536;8.500;2023-07-13T14:38:49;25.70;99.90
38241;DHT22;24037;49.536;8.500;2023-07-13T14:41:15;25.80;99.90
38241;DHT22;24037;49.536;8.500;2023-07-13T14:43:42;25.70;99.90
38241;DHT22;24037;49.536;8.500;2023-07-13T14:46:24;25.70;99.90
38241;DHT22;24037;49.536;8.500;2023-07-13T14:49:05;25.50;99.90
38241;DHT22;24037;49.536;8.500;2023-07-13T14:51:32;25.60;99.90
38241;DHT22;24037;49.536;8.500;2023-07-13T14:54:02;25.60;99.90
38241;DHT22;24037;49.536;8.500;2023-07-13T14:56:28;25.40;99.90
38241;DHT22;24037;49.536;8.500;2023-07-13T14:58:54;25.40;99.90
38241;DHT22;24037;49.536;8.500;2023-07-13T15:01:21;25.50;99.90
38241;DHT22;24037;49.536;8.500;2023-07-13T15:03:50;25.40;99.90
38241;DHT22;24037;49.536;8.500;2023-07-13T15:06:18;25.30;99.90
38241;DHT22;24037;49.536;8.500;2023-07-13T15:08:45;25.40;99.90
38241;DHT22;24037;49.536;8.500;2023-07-13T15:11:12;25.60;99.90
38241;DHT22;24037;49.536;8.500;2023-07-13T15:13:41;25.70;99.90
38241;DHT22;24037;49.536;8.500;2023-07-13T15:16:21;25.60;99.90
38241;DHT22;24037;49.536;8.500;2023-07-13T15:18:47;25.10;99.90
38241;DHT22;24037;49.536;8.500;2023-07-13T15:21:21;25.10;99.90
38241;DHT22;24037;49.536;8.500;2023-07-13T15:23:49;25.20;99.90
38241;DHT22;24037;49.536;8.500;2023-07-13T15:26:16;25.20;99.90
38241;DHT22;24037;49.536;8.500;2023-07-13T15:28:44;25.10;99.90
38241;DHT22;24037;49.536;8.500;2023-07-13T15:31:25;24.90;99.90
38241;DHT22;24037;49.536;8.500;2023-07-13T15:33:54;25.00;99.90
38241;DHT22;24037;49.536;8.500;2023-07-13T15:36:22;25.10;99.90
38241;DHT22;24037;49.536;8.500;2023-07-13T15:38:51;25.20;99.90
38241;DHT22;24037;49.536;8.500;2023-07-13T15:43:43;25.30;99.90
38241;DHT22;24037;49.536;8.500;2023-07-13T15:46:09;25.50;99.90
38241;DHT22;24037;49.536;8.500;2023-07-13T15:48:36;25.40;99.90
38241;DHT22;24037;49.536;8.500;2023-07-13T15:51:04;25.10;99.90
38241;DHT22;24037;49.536;8.500;2023-07-13T15:53:33;25.00;99.90
38241;DHT22;24037;49.536;8.500;2023-07-13T15:56:02;25.10;99.90
38241;DHT22;24037;49.536;8.500;2023-07-13T15:58:28;25.30;99.90
38241;DHT22;24037;49.536;8.500;2023-07-13T16:00:54;25.30;99.90
38241;DHT22;24037;49.536;8.500;2023-07-13T16:03:21;25.50;99.90
38241;DHT22;24037;49.536;8.500;2023-07-13T16:05:47;25.20;99.90
38241;DHT22;24037;49.536;8.500;2023-07-13T16:08:31;25.00;99.90
38241;DHT22;24037;49.536;8.500;2023-07-13T16:10:59;25.00;99.90
38241;DHT22;24037;49.536;8.500;2023-07-13T16:13:26;25.10;99.90
38241;DHT22;24037;49.536;8.500;2023-07-13T16:15:53;25.10;99.90
38241;DHT22;24037;49.536;8.500;2023-07-13T16:18:22;25.30;99.90
38241;DHT22;24037;49.536;8.500;2023-07-13T16:20:48;25.50;99.90
38241;DHT22;24037;49.536;8.500;2023-07-13T16:23:16;25.50;99.90
38241;DHT22;24037;49.536;8.500;2023-07-13T16:25:43;25.10;99.90
38241;DHT22;24037;49.536;8.500;2023-07-13T16:28:12;24.90;99.90
38241;DHT22;24037;49.536;8.500;2023-07-13T16:30:40;24.70;99.90